This is the latest recevied weather packets stored in our database for station/object WK7G. If no packets are shown the sender has not sent any weather packets the latest 10 day(s).
| Time | Temp. | Humidity | Pressure | Rain* | Wind** | Luminosity | Snow |
|---|---|---|---|---|---|---|---|
| 1777639809 | -1.67° C | 79% | 1015.7 hPa | 0 mm | - | 23 W/m² | - |
| 1777638595 | -1.11° C | 76% | 1015.3 hPa | 0 mm | - | 8 W/m² | - |
| 1777638291 | -1.11° C | 76% | 1015.3 hPa | 0 mm | - | 6 W/m² | - |
| 1777637988 | -1.11° C | 76% | 1015.3 hPa | 0 mm | - | 3 W/m² | - |
| 1777637381 | -2.22° C | 80% | 1015.2 hPa | 0 mm | - | 0 W/m² | - |
| 1777637078 | -2.22° C | 79% | 1015.3 hPa | 0 mm | - | 0 W/m² | - |
| 1777636773 | -1.11° C | 77% | 1015.1 hPa | 0 mm | - | 0 W/m² | - |
| 1777636470 | -1.67° C | 77% | 1015.1 hPa | 0 mm | - | 0 W/m² | - |
| 1777636166 | -1.11° C | 77% | 1015.1 hPa | 0 mm | - | 0 W/m² | - |
| 1777635861 | -1.11° C | 76% | 1015.2 hPa | 0 mm | - | 0 W/m² | - |
| 1777635558 | -1.11° C | 76% | 1015.3 hPa | 0 mm | - | 0 W/m² | - |
| 1777635255 | -1.67° C | 79% | 1015.1 hPa | 0 mm | - | 0 W/m² | - |
| 1777634951 | -2.22° C | 78% | 1015.3 hPa | 0 mm | - | 0 W/m² | - |
| 1777634648 | -2.22° C | 78% | 1014.9 hPa | 0 mm | - | 0 W/m² | - |
| 1777634345 | -1.67° C | 77% | 1014.9 hPa | 0 mm | - | 0 W/m² | - |
| 1777634041 | -1.11° C | 77% | 1014.9 hPa | 0 mm | - | 0 W/m² | - |
| 1777633738 | -1.11° C | 77% | 1015.1 hPa | 0 mm | - | 0 W/m² | - |
| 1777633437 | -1.11° C | 76% | 1015.1 hPa | 0 mm | - | 0 W/m² | - |
| 1777633134 | -1.11° C | 77% | 1015.2 hPa | 0 mm | - | 0 W/m² | - |
| 1777632830 | -1.11° C | 76% | 1015.1 hPa | 0 mm | - | 0 W/m² | - |
| 1777632526 | -1.11° C | 77% | 1014.9 hPa | 0 mm | - | 0 W/m² | - |
| 1777632224 | -1.11° C | 78% | 1014.9 hPa | 0 mm | - | 0 W/m² | - |
| 1777631921 | -1.11° C | 75% | 1015.1 hPa | 0 mm | - | 0 W/m² | - |
| 1777631619 | -0.56° C | 76% | 1014.9 hPa | 0 mm | - | 0 W/m² | - |
| 1777631316 | -1.11° C | 76% | 1014.9 hPa | 0 mm | - | 0 W/m² | - |
* Rain latest hour (hover to see other rain measurements)
** Current wind speed in m/s (hover to see current wind gust speed)